sensor_id;sensor_type;location;lat;lon;timestamp;temperature;humidity
8436;DHT22;4255;48.730;9.156;2023-04-15T00:00:03;7.10;1.00
8436;DHT22;4255;48.730;9.156;2023-04-15T00:02:29;7.10;5.20
8436;DHT22;4255;48.730;9.156;2023-04-15T00:04:55;7.10;3.00
8436;DHT22;4255;48.730;9.156;2023-04-15T00:07:21;7.10;1.00
8436;DHT22;4255;48.730;9.156;2023-04-15T00:09:46;7.10;3.20
8436;DHT22;4255;48.730;9.156;2023-04-15T00:12:12;7.10;1.00
8436;DHT22;4255;48.730;9.156;2023-04-15T00:14:38;7.20;1.00
8436;DHT22;4255;48.730;9.156;2023-04-15T00:17:03;7.20;1.00
8436;DHT22;4255;48.730;9.156;2023-04-15T00:19:30;7.20;1.00
8436;DHT22;4255;48.730;9.156;2023-04-15T00:21:56;7.10;1.00
8436;DHT22;4255;48.730;9.156;2023-04-15T00:24:22;7.10;1.00
8436;DHT22;4255;48.730;9.156;2023-04-15T00:26:48;7.00;16.80
8436;DHT22;4255;48.730;9.156;2023-04-15T00:29:14;6.90;21.60
8436;DHT22;4255;48.730;9.156;2023-04-15T00:31:40;6.80;34.20
8436;DHT22;4255;48.730;9.156;2023-04-15T00:34:06;6.80;19.70
8436;DHT22;4255;48.730;9.156;2023-04-15T00:36:32;6.80;15.90
8436;DHT22;4255;48.730;9.156;2023-04-15T00:38:59;6.90;12.00
8436;DHT22;4255;48.730;9.156;2023-04-15T00:41:25;6.90;7.00
8436;DHT22;4255;48.730;9.156;2023-04-15T00:43:51;6.90;8.50
8436;DHT22;4255;48.730;9.156;2023-04-15T00:46:18;6.90;2.50
8436;DHT22;4255;48.730;9.156;2023-04-15T00:48:46;6.90;1.00
8436;DHT22;4255;48.730;9.156;2023-04-15T00:51:12;6.90;1.00
8436;DHT22;4255;48.730;9.156;2023-04-15T00:53:39;6.80;6.50
8436;DHT22;4255;48.730;9.156;2023-04-15T00:56:05;6.80;14.90
8436;DHT22;4255;48.730;9.156;2023-04-15T00:58:31;6.60;12.20
8436;DHT22;4255;48.730;9.156;2023-04-15T01:00:57;6.60;26.40
8436;DHT22;4255;48.730;9.156;2023-04-15T01:03:24;6.60;31.60
8436;DHT22;4255;48.730;9.156;2023-04-15T01:05:50;6.50;25.90
8436;DHT22;4255;48.730;9.156;2023-04-15T01:08:31;6.50;19.70
8436;DHT22;4255;48.730;9.156;2023-04-15T01:10:58;6.50;23.20
8436;DHT22;4255;48.730;9.156;2023-04-15T01:13:24;6.50;33.70
8436;DHT22;4255;48.730;9.156;2023-04-15T01:15:52;6.50;28.90
8436;DHT22;4255;48.730;9.156;2023-04-15T01:18:18;6.40;28.20
8436;DHT22;4255;48.730;9.156;2023-04-15T01:20:44;6.40;31.90
8436;DHT22;4255;48.730;9.156;2023-04-15T01:23:10;6.40;24.30
8436;DHT22;4255;48.730;9.156;2023-04-15T01:25:35;6.40;34.80
8436;DHT22;4255;48.730;9.156;2023-04-15T01:28:01;6.30;39.70
8436;DHT22;4255;48.730;9.156;2023-04-15T01:30:27;6.30;39.80
8436;DHT22;4255;48.730;9.156;2023-04-15T01:32:53;6.30;40.50
8436;DHT22;4255;48.730;9.156;2023-04-15T01:35:19;6.30;40.40
8436;DHT22;4255;48.730;9.156;2023-04-15T01:37:45;6.20;51.40
8436;DHT22;4255;48.730;9.156;2023-04-15T01:40:11;6.20;58.20
8436;DHT22;4255;48.730;9.156;2023-04-15T01:42:38;6.20;52.60
8436;DHT22;4255;48.730;9.156;2023-04-15T01:45:04;6.20;51.90
8436;DHT22;4255;48.730;9.156;2023-04-15T01:47:30;6.20;44.50
8436;DHT22;4255;48.730;9.156;2023-04-15T01:49:56;6.20;57.50
8436;DHT22;4255;48.730;9.156;2023-04-15T01:52:22;6.10;73.30
8436;DHT22;4255;48.730;9.156;2023-04-15T01:54:47;6.10;86.60
8436;DHT22;4255;48.730;9.156;2023-04-15T01:57:13;6.10;81.60
8436;DHT22;4255;48.730;9.156;2023-04-15T01:59:39;6.20;64.20
8436;DHT22;4255;48.730;9.156;2023-04-15T02:02:05;6.20;67.10
8436;DHT22;4255;48.730;9.156;2023-04-15T02:04:31;6.00;98.70
8436;DHT22;4255;48.730;9.156;2023-04-15T02:06:56;5.90;99.90
8436;DHT22;4255;48.730;9.156;2023-04-15T02:09:22;5.90;99.00
8436;DHT22;4255;48.730;9.156;2023-04-15T02:11:48;5.90;99.90
8436;DHT22;4255;48.730;9.156;2023-04-15T02:14:13;5.90;99.90
8436;DHT22;4255;48.730;9.156;2023-04-15T02:16:39;5.90;99.90
8436;DHT22;4255;48.730;9.156;2023-04-15T02:19:05;5.90;91.80
8436;DHT22;4255;48.730;9.156;2023-04-15T02:21:31;5.90;78.00
8436;DHT22;4255;48.730;9.156;2023-04-15T02:23:56;5.90;77.20
8436;DHT22;4255;48.730;9.156;2023-04-15T02:26:22;5.90;89.40
8436;DHT22;4255;48.730;9.156;2023-04-15T02:28:49;5.90;83.00
8436;DHT22;4255;48.730;9.156;2023-04-15T02:31:18;5.80;82.00
8436;DHT22;4255;48.730;9.156;2023-04-15T02:33:44;5.80;83.10
8436;DHT22;4255;48.730;9.156;2023-04-15T02:36:09;5.80;81.70
8436;DHT22;4255;48.730;9.156;2023-04-15T02:38:36;5.80;72.80
8436;DHT22;4255;48.730;9.156;2023-04-15T02:41:04;5.80;66.10
8436;DHT22;4255;48.730;9.156;2023-04-15T02:43:30;5.70;73.50
8436;DHT22;4255;48.730;9.156;2023-04-15T02:45:56;5.60;68.30
8436;DHT22;4255;48.730;9.156;2023-04-15T02:48:21;5.70;65.20
8436;DHT22;4255;48.730;9.156;2023-04-15T02:50:47;5.70;65.20
8436;DHT22;4255;48.730;9.156;2023-04-15T02:53:12;5.70;58.50
8436;DHT22;4255;48.730;9.156;2023-04-15T02:55:39;5.70;62.90
8436;DHT22;4255;48.730;9.156;2023-04-15T02:58:05;5.70;73.00
8436;DHT22;4255;48.730;9.156;2023-04-15T03:00:31;5.60;82.30
8436;DHT22;4255;48.730;9.156;2023-04-15T03:03:05;5.60;82.90
8436;DHT22;4255;48.730;9.156;2023-04-15T03:05:31;5.60;76.60
8436;DHT22;4255;48.730;9.156;2023-04-15T03:07:57;5.60;78.40
8436;DHT22;4255;48.730;9.156;2023-04-15T03:10:23;5.50;99.90
8436;DHT22;4255;48.730;9.156;2023-04-15T03:12:48;5.40;99.90
8436;DHT22;4255;48.730;9.156;2023-04-15T03:15:14;5.30;99.90
8436;DHT22;4255;48.730;9.156;2023-04-15T03:17:40;5.30;99.90
8436;DHT22;4255;48.730;9.156;2023-04-15T03:20:06;5.40;99.90
8436;DHT22;4255;48.730;9.156;2023-04-15T03:22:32;5.40;99.90
8436;DHT22;4255;48.730;9.156;2023-04-15T03:24:58;5.40;98.30
8436;DHT22;4255;48.730;9.156;2023-04-15T03:27:24;5.40;92.80
8436;DHT22;4255;48.730;9.156;2023-04-15T03:29:50;5.50;91.40
8436;DHT22;4255;48.730;9.156;2023-04-15T03:32:16;5.50;90.70
8436;DHT22;4255;48.730;9.156;2023-04-15T03:34:41;5.40;97.70
8436;DHT22;4255;48.730;9.156;2023-04-15T03:37:07;5.40;91.60
8436;DHT22;4255;48.730;9.156;2023-04-15T03:39:33;5.30;99.90
8436;DHT22;4255;48.730;9.156;2023-04-15T03:41:59;5.30;99.90
8436;DHT22;4255;48.730;9.156;2023-04-15T03:44:26;5.20;91.60
8436;DHT22;4255;48.730;9.156;2023-04-15T03:46:52;5.20;97.50
8436;DHT22;4255;48.730;9.156;2023-04-15T03:49:17;5.20;96.50
8436;DHT22;4255;48.730;9.156;2023-04-15T03:51:44;5.20;94.60
8436;DHT22;4255;48.730;9.156;2023-04-15T03:54:10;5.20;95.90
8436;DHT22;4255;48.730;9.156;2023-04-15T03:56:36;5.00;99.90
8436;DHT22;4255;48.730;9.156;2023-04-15T03:59:02;4.80;99.90
8436;DHT22;4255;48.730;9.156;2023-04-15T04:01:27;4.70;99.90
8436;DHT22;4255;48.730;9.156;2023-04-15T04:03:53;4.70;99.90
8436;DHT22;4255;48.730;9.156;2023-04-15T04:06:19;4.80;99.90
8436;DHT22;4255;48.730;9.156;2023-04-15T04:08:44;4.90;99.90
8436;DHT22;4255;48.730;9.156;2023-04-15T04:11:10;5.00;99.90
8436;DHT22;4255;48.730;9.156;2023-04-15T04:13:36;5.10;99.90
8436;DHT22;4255;48.730;9.156;2023-04-15T04:16:01;5.10;99.90
8436;DHT22;4255;48.730;9.156;2023-04-15T04:18:29;5.20;99.60
8436;DHT22;4255;48.730;9.156;2023-04-15T04:20:55;5.10;99.90
8436;DHT22;4255;48.730;9.156;2023-04-15T04:23:21;5.00;99.90
8436;DHT22;4255;48.730;9.156;2023-04-15T04:25:47;5.00;99.90
8436;DHT22;4255;48.730;9.156;2023-04-15T04:28:12;5.10;99.90
8436;DHT22;4255;48.730;9.156;2023-04-15T04:30:38;5.20;99.90
8436;DHT22;4255;48.730;9.156;2023-04-15T04:33:04;5.20;96.00
8436;DHT22;4255;48.730;9.156;2023-04-15T04:35:29;5.10;99.90
8436;DHT22;4255;48.730;9.156;2023-04-15T04:37:58;5.00;99.90
8436;DHT22;4255;48.730;9.156;2023-04-15T04:40:23;4.90;99.90
8436;DHT22;4255;48.730;9.156;2023-04-15T04:42:49;4.80;99.90
8436;DHT22;4255;48.730;9.156;2023-04-15T04:45:14;4.60;99.90
8436;DHT22;4255;48.730;9.156;2023-04-15T04:47:40;4.80;99.90
8436;DHT22;4255;48.730;9.156;2023-04-15T04:50:06;4.80;99.90
8436;DHT22;4255;48.730;9.156;2023-04-15T04:52:32;4.70;99.90
8436;DHT22;4255;48.730;9.156;2023-04-15T04:54:58;4.70;99.90
8436;DHT22;4255;48.730;9.156;2023-04-15T04:57:23;4.70;99.90
8436;DHT22;4255;48.730;9.156;2023-04-15T04:59:49;4.60;99.90
8436;DHT22;4255;48.730;9.156;2023-04-15T05:02:14;4.60;99.90
8436;DHT22;4255;48.730;9.156;2023-04-15T05:04:40;4.70;99.90
8436;DHT22;4255;48.730;9.156;2023-04-15T05:07:06;4.80;99.90
8436;DHT22;4255;48.730;9.156;2023-04-15T05:09:31;4.90;99.90
8436;DHT22;4255;48.730;9.156;2023-04-15T05:12:00;4.90;99.90
8436;DHT22;4255;48.730;9.156;2023-04-15T05:14:26;4.90;99.90
8436;DHT22;4255;48.730;9.156;2023-04-15T05:16:51;4.80;99.90
8436;DHT22;4255;48.730;9.156;2023-04-15T05:19:20;4.80;99.90
8436;DHT22;4255;48.730;9.156;2023-04-15T05:21:46;4.80;99.90
8436;DHT22;4255;48.730;9.156;2023-04-15T05:24:11;4.80;99.90
8436;DHT22;4255;48.730;9.156;2023-04-15T05:26:37;4.80;99.90
8436;DHT22;4255;48.730;9.156;2023-04-15T05:29:02;4.90;99.90
8436;DHT22;4255;48.730;9.156;2023-04-15T05:31:28;4.80;99.90
8436;DHT22;4255;48.730;9.156;2023-04-15T05:33:54;4.90;99.90
8436;DHT22;4255;48.730;9.156;2023-04-15T05:36:19;4.90;99.90
8436;DHT22;4255;48.730;9.156;2023-04-15T05:38:45;5.10;99.90
8436;DHT22;4255;48.730;9.156;2023-04-15T05:41:11;5.20;99.90
8436;DHT22;4255;48.730;9.156;2023-04-15T05:43:37;5.30;99.90
8436;DHT22;4255;48.730;9.156;2023-04-15T05:46:02;5.50;99.90
8436;DHT22;4255;48.730;9.156;2023-04-15T05:48:28;5.90;99.90
8436;DHT22;4255;48.730;9.156;2023-04-15T05:50:53;6.10;99.90
8436;DHT22;4255;48.730;9.156;2023-04-15T05:53:19;6.30;99.90
8436;DHT22;4255;48.730;9.156;2023-04-15T05:55:45;6.60;99.90
8436;DHT22;4255;48.730;9.156;2023-04-15T05:58:11;6.90;99.90
8436;DHT22;4255;48.730;9.156;2023-04-15T06:00:36;7.20;99.90
8436;DHT22;4255;48.730;9.156;2023-04-15T06:03:03;7.30;99.90
8436;DHT22;4255;48.730;9.156;2023-04-15T06:05:28;7.50;99.90
8436;DHT22;4255;48.730;9.156;2023-04-15T06:07:54;7.80;52.60
8436;DHT22;4255;48.730;9.156;2023-04-15T06:10:19;7.90;11.70
8436;DHT22;4255;48.730;9.156;2023-04-15T06:12:45;8.00;1.00
8436;DHT22;4255;48.730;9.156;2023-04-15T06:15:11;8.20;1.00
8436;DHT22;4255;48.730;9.156;2023-04-15T06:17:36;8.50;1.00
8436;DHT22;4255;48.730;9.156;2023-04-15T06:20:02;8.60;1.00
8436;DHT22;4255;48.730;9.156;2023-04-15T06:22:28;8.80;1.00
8436;DHT22;4255;48.730;9.156;2023-04-15T06:24:55;8.90;1.00
8436;DHT22;4255;48.730;9.156;2023-04-15T06:27:20;9.10;1.00
8436;DHT22;4255;48.730;9.156;2023-04-15T06:29:47;9.30;1.00
8436;DHT22;4255;48.730;9.156;2023-04-15T06:32:13;9.30;1.00
8436;DHT22;4255;48.730;9.156;2023-04-15T06:34:38;9.30;1.00
8436;DHT22;4255;48.730;9.156;2023-04-15T06:37:04;9.50;1.00
8436;DHT22;4255;48.730;9.156;2023-04-15T06:39:30;9.70;1.00
8436;DHT22;4255;48.730;9.156;2023-04-15T06:41:56;10.10;1.00
8436;DHT22;4255;48.730;9.156;2023-04-15T06:44:22;10.30;1.00
8436;DHT22;4255;48.730;9.156;2023-04-15T06:46:48;10.50;1.00
8436;DHT22;4255;48.730;9.156;2023-04-15T06:49:13;10.60;1.00
8436;DHT22;4255;48.730;9.156;2023-04-15T06:51:41;10.60;1.00
8436;DHT22;4255;48.730;9.156;2023-04-15T06:54:06;10.80;1.00
8436;DHT22;4255;48.730;9.156;2023-04-15T06:56:32;10.90;1.00
8436;DHT22;4255;48.730;9.156;2023-04-15T06:58:58;10.80;1.00
8436;DHT22;4255;48.730;9.156;2023-04-15T07:01:23;10.80;1.00
8436;DHT22;4255;48.730;9.156;2023-04-15T07:03:49;11.00;1.00
8436;DHT22;4255;48.730;9.156;2023-04-15T07:06:15;11.00;1.00
8436;DHT22;4255;48.730;9.156;2023-04-15T07:08:40;11.10;1.00
8436;DHT22;4255;48.730;9.156;2023-04-15T07:11:06;10.90;1.00
8436;DHT22;4255;48.730;9.156;2023-04-15T07:13:33;10.90;99.90
8436;DHT22;4255;48.730;9.156;2023-04-15T07:15:59;10.70;1.00
8436;DHT22;4255;48.730;9.156;2023-04-15T07:18:24;10.50;1.00
8436;DHT22;4255;48.730;9.156;2023-04-15T07:20:50;10.50;1.00
8436;DHT22;4255;48.730;9.156;2023-04-15T07:23:16;10.90;1.00
8436;DHT22;4255;48.730;9.156;2023-04-15T07:25:41;11.30;1.00
8436;DHT22;4255;48.730;9.156;2023-04-15T07:28:07;11.60;1.00
8436;DHT22;4255;48.730;9.156;2023-04-15T07:30:32;11.80;1.00
8436;DHT22;4255;48.730;9.156;2023-04-15T07:32:59;12.10;99.90
8436;DHT22;4255;48.730;9.156;2023-04-15T07:35:25;12.40;99.90
8436;DHT22;4255;48.730;9.156;2023-04-15T07:37:52;12.60;1.00
8436;DHT22;4255;48.730;9.156;2023-04-15T07:40:17;12.90;1.00
8436;DHT22;4255;48.730;9.156;2023-04-15T07:42:43;13.20;99.90
8436;DHT22;4255;48.730;9.156;2023-04-15T07:45:09;13.50;1.00
8436;DHT22;4255;48.730;9.156;2023-04-15T07:47:35;14.00;1.00
8436;DHT22;4255;48.730;9.156;2023-04-15T07:50:01;14.20;1.00
8436;DHT22;4255;48.730;9.156;2023-04-15T07:52:27;14.50;1.00
8436;DHT22;4255;48.730;9.156;2023-04-15T07:54:53;14.60;99.90
8436;DHT22;4255;48.730;9.156;2023-04-15T07:57:18;14.40;99.90
8436;DHT22;4255;48.730;9.156;2023-04-15T07:59:44;14.40;1.00
8436;DHT22;4255;48.730;9.156;2023-04-15T08:02:10;14.60;99.90
8436;DHT22;4255;48.730;9.156;2023-04-15T08:04:36;14.50;1.00
8436;DHT22;4255;48.730;9.156;2023-04-15T08:07:02;14.40;99.90
8436;DHT22;4255;48.730;9.156;2023-04-15T08:09:29;14.30;1.00
8436;DHT22;4255;48.730;9.156;2023-04-15T08:11:55;14.30;1.00
8436;DHT22;4255;48.730;9.156;2023-04-15T08:14:21;14.40;99.90
8436;DHT22;4255;48.730;9.156;2023-04-15T08:16:47;14.50;1.00
8436;DHT22;4255;48.730;9.156;2023-04-15T08:19:12;14.40;99.90
8436;DHT22;4255;48.730;9.156;2023-04-15T08:21:38;14.20;1.00
8436;DHT22;4255;48.730;9.156;2023-04-15T08:24:05;14.30;99.90
8436;DHT22;4255;48.730;9.156;2023-04-15T08:26:31;14.10;1.00
8436;DHT22;4255;48.730;9.156;2023-04-15T08:28:57;13.90;99.90
8436;DHT22;4255;48.730;9.156;2023-04-15T08:31:22;13.80;99.90
8436;DHT22;4255;48.730;9.156;2023-04-15T08:33:48;13.70;97.00
8436;DHT22;4255;48.730;9.156;2023-04-15T08:36:16;13.90;1.00
8436;DHT22;4255;48.730;9.156;2023-04-15T08:38:43;14.00;1.00
8436;DHT22;4255;48.730;9.156;2023-04-15T08:41:17;13.80;99.90
8436;DHT22;4255;48.730;9.156;2023-04-15T08:44:10;13.90;99.90
8436;DHT22;4255;48.730;9.156;2023-04-15T08:46:36;13.90;99.90
8436;DHT22;4255;48.730;9.156;2023-04-15T08:49:04;13.80;99.90
8436;DHT22;4255;48.730;9.156;2023-04-15T08:51:30;13.80;99.90
8436;DHT22;4255;48.730;9.156;2023-04-15T08:53:57;14.10;99.90
8436;DHT22;4255;48.730;9.156;2023-04-15T08:56:24;14.30;99.90
8436;DHT22;4255;48.730;9.156;2023-04-15T08:58:51;14.50;99.90
8436;DHT22;4255;48.730;9.156;2023-04-15T09:01:17;14.80;99.90
8436;DHT22;4255;48.730;9.156;2023-04-15T09:03:43;15.00;99.90
8436;DHT22;4255;48.730;9.156;2023-04-15T09:06:09;15.10;23.90
8436;DHT22;4255;48.730;9.156;2023-04-15T09:08:35;15.10;6.50
8436;DHT22;4255;48.730;9.156;2023-04-15T09:11:01;14.90;2.60
8436;DHT22;4255;48.730;9.156;2023-04-15T09:13:28;14.90;1.00
8436;DHT22;4255;48.730;9.156;2023-04-15T09:15:54;14.70;14.30
8436;DHT22;4255;48.730;9.156;2023-04-15T09:18:30;14.60;14.90
8436;DHT22;4255;48.730;9.156;2023-04-15T09:21:06;14.50;1.00
8436;DHT22;4255;48.730;9.156;2023-04-15T09:23:33;14.40;56.80
8436;DHT22;4255;48.730;9.156;2023-04-15T09:26:00;14.60;55.10
8436;DHT22;4255;48.730;9.156;2023-04-15T09:28:27;14.90;1.00
8436;DHT22;4255;48.730;9.156;2023-04-15T09:30:56;15.00;1.00
8436;DHT22;4255;48.730;9.156;2023-04-15T09:33:23;15.30;1.00
8436;DHT22;4255;48.730;9.156;2023-04-15T09:36:03;15.10;1.00
8436;DHT22;4255;48.730;9.156;2023-04-15T09:38:31;15.00;3.30
8436;DHT22;4255;48.730;9.156;2023-04-15T09:40:58;15.30;1.00
8436;DHT22;4255;48.730;9.156;2023-04-15T09:43:39;15.30;1.00
8436;DHT22;4255;48.730;9.156;2023-04-15T09:46:05;15.30;1.00
8436;DHT22;4255;48.730;9.156;2023-04-15T09:48:30;15.40;1.00
8436;DHT22;4255;48.730;9.156;2023-04-15T09:51:00;15.70;1.00
8436;DHT22;4255;48.730;9.156;2023-04-15T09:53:26;16.00;1.00
8436;DHT22;4255;48.730;9.156;2023-04-15T09:55:53;15.70;1.00
8436;DHT22;4255;48.730;9.156;2023-04-15T09:58:21;15.70;1.00
8436;DHT22;4255;48.730;9.156;2023-04-15T10:00:48;15.30;1.00
8436;DHT22;4255;48.730;9.156;2023-04-15T10:03:20;15.30;1.00
8436;DHT22;4255;48.730;9.156;2023-04-15T10:05:51;15.60;1.00
8436;DHT22;4255;48.730;9.156;2023-04-15T10:08:19;15.20;1.00
8436;DHT22;4255;48.730;9.156;2023-04-15T10:10:45;15.00;1.00
8436;DHT22;4255;48.730;9.156;2023-04-15T10:13:16;14.70;1.00
8436;DHT22;4255;48.730;9.156;2023-04-15T10:15:44;14.60;1.00
8436;DHT22;4255;48.730;9.156;2023-04-15T10:18:15;14.60;1.00
8436;DHT22;4255;48.730;9.156;2023-04-15T10:20:43;14.70;1.00
8436;DHT22;4255;48.730;9.156;2023-04-15T10:23:11;14.80;1.00
8436;DHT22;4255;48.730;9.156;2023-04-15T10:25:36;14.60;1.00
8436;DHT22;4255;48.730;9.156;2023-04-15T10:28:05;14.50;1.00
8436;DHT22;4255;48.730;9.156;2023-04-15T10:30:32;14.70;1.00
8436;DHT22;4255;48.730;9.156;2023-04-15T10:32:59;14.80;1.00
8436;DHT22;4255;48.730;9.156;2023-04-15T10:35:25;14.40;1.00
8436;DHT22;4255;48.730;9.156;2023-04-15T10:37:51;14.10;1.00
8436;DHT22;4255;48.730;9.156;2023-04-15T10:42:48;14.00;24.60
8436;DHT22;4255;48.730;9.156;2023-04-15T10:45:17;14.00;1.00
8436;DHT22;4255;48.730;9.156;2023-04-15T10:47:43;14.00;1.00
8436;DHT22;4255;48.730;9.156;2023-04-15T10:50:09;14.10;47.50
8436;DHT22;4255;48.730;9.156;2023-04-15T10:52:39;13.70;99.90
8436;DHT22;4255;48.730;9.156;2023-04-15T10:55:14;13.70;1.00
8436;DHT22;4255;48.730;9.156;2023-04-15T10:57:41;14.00;22.80
8436;DHT22;4255;48.730;9.156;2023-04-15T11:02:52;14.50;1.00
8436;DHT22;4255;48.730;9.156;2023-04-15T11:05:19;14.90;80.60
8436;DHT22;4255;48.730;9.156;2023-04-15T11:12:44;15.10;1.00
8436;DHT22;4255;48.730;9.156;2023-04-15T11:15:27;15.10;1.00
8436;DHT22;4255;48.730;9.156;2023-04-15T11:17:57;15.00;1.00
8436;DHT22;4255;48.730;9.156;2023-04-15T11:20:23;14.50;1.00
8436;DHT22;4255;48.730;9.156;2023-04-15T11:22:50;14.40;99.90
8436;DHT22;4255;48.730;9.156;2023-04-15T11:25:27;14.10;99.90
8436;DHT22;4255;48.730;9.156;2023-04-15T11:27:54;14.20;1.00
8436;DHT22;4255;48.730;9.156;2023-04-15T11:30:22;13.80;99.90
8436;DHT22;4255;48.730;9.156;2023-04-15T11:32:53;13.60;99.90
8436;DHT22;4255;48.730;9.156;2023-04-15T11:35:19;13.90;99.90
8436;DHT22;4255;48.730;9.156;2023-04-15T11:37:47;14.20;99.90
8436;DHT22;4255;48.730;9.156;2023-04-15T11:40:13;14.50;99.60
8436;DHT22;4255;48.730;9.156;2023-04-15T11:42:40;14.70;99.90
8436;DHT22;4255;48.730;9.156;2023-04-15T11:45:10;15.00;1.00
8436;DHT22;4255;48.730;9.156;2023-04-15T11:47:36;15.20;1.00
8436;DHT22;4255;48.730;9.156;2023-04-15T11:50:22;15.10;1.00
8436;DHT22;4255;48.730;9.156;2023-04-15T11:52:59;14.70;1.00
8436;DHT22;4255;48.730;9.156;2023-04-15T11:55:26;14.40;54.80
8436;DHT22;4255;48.730;9.156;2023-04-15T11:58:15;14.40;99.90
8436;DHT22;4255;48.730;9.156;2023-04-15T12:00:46;14.40;99.90
8436;DHT22;4255;48.730;9.156;2023-04-15T12:03:13;14.40;1.00
8436;DHT22;4255;48.730;9.156;2023-04-15T12:11:14;14.10;1.00
8436;DHT22;4255;48.730;9.156;2023-04-15T12:13:44;14.00;99.90
8436;DHT22;4255;48.730;9.156;2023-04-15T12:16:10;14.50;1.00
8436;DHT22;4255;48.730;9.156;2023-04-15T12:18:39;14.80;1.00
8436;DHT22;4255;48.730;9.156;2023-04-15T12:21:11;15.20;99.90
8436;DHT22;4255;48.730;9.156;2023-04-15T12:23:38;15.40;44.50
8436;DHT22;4255;48.730;9.156;2023-04-15T12:26:04;14.90;1.00
8436;DHT22;4255;48.730;9.156;2023-04-15T12:28:33;14.90;1.00
8436;DHT22;4255;48.730;9.156;2023-04-15T12:31:06;14.80;30.80
8436;DHT22;4255;48.730;9.156;2023-04-15T12:33:33;14.90;1.00
8436;DHT22;4255;48.730;9.156;2023-04-15T12:35:59;14.60;1.00
8436;DHT22;4255;48.730;9.156;2023-04-15T12:38:25;14.30;1.00
8436;DHT22;4255;48.730;9.156;2023-04-15T12:40:50;14.20;1.00
8436;DHT22;4255;48.730;9.156;2023-04-15T12:43:16;14.10;1.00
8436;DHT22;4255;48.730;9.156;2023-04-15T12:45:42;13.30;41.30
8436;DHT22;4255;48.730;9.156;2023-04-15T12:48:07;12.80;1.00
8436;DHT22;4255;48.730;9.156;2023-04-15T12:50:34;12.50;1.00
8436;DHT22;4255;48.730;9.156;2023-04-15T12:53:00;12.30;1.00
8436;DHT22;4255;48.730;9.156;2023-04-15T12:55:25;12.00;99.90
8436;DHT22;4255;48.730;9.156;2023-04-15T12:57:52;11.60;1.00
8436;DHT22;4255;48.730;9.156;2023-04-15T13:00:17;11.60;1.00
8436;DHT22;4255;48.730;9.156;2023-04-15T13:02:43;11.60;1.00
8436;DHT22;4255;48.730;9.156;2023-04-15T13:05:09;11.50;1.00
8436;DHT22;4255;48.730;9.156;2023-04-15T13:07:34;11.40;1.00
8436;DHT22;4255;48.730;9.156;2023-04-15T13:10:00;11.70;1.00
8436;DHT22;4255;48.730;9.156;2023-04-15T13:12:26;11.60;99.90
8436;DHT22;4255;48.730;9.156;2023-04-15T13:14:52;11.70;1.00
8436;DHT22;4255;48.730;9.156;2023-04-15T13:17:17;12.00;99.90
8436;DHT22;4255;48.730;9.156;2023-04-15T13:19:45;12.10;1.00
8436;DHT22;4255;48.730;9.156;2023-04-15T13:22:10;12.20;99.90
8436;DHT22;4255;48.730;9.156;2023-04-15T13:24:37;12.40;99.70
8436;DHT22;4255;48.730;9.156;2023-04-15T13:27:04;12.60;99.90
8436;DHT22;4255;48.730;9.156;2023-04-15T13:29:29;12.30;1.00
8436;DHT22;4255;48.730;9.156;2023-04-15T13:31:55;12.20;99.90
8436;DHT22;4255;48.730;9.156;2023-04-15T13:34:21;12.40;99.90
8436;DHT22;4255;48.730;9.156;2023-04-15T13:36:46;12.40;1.00
8436;DHT22;4255;48.730;9.156;2023-04-15T13:39:12;12.70;99.90
8436;DHT22;4255;48.730;9.156;2023-04-15T13:41:38;12.70;99.90
8436;DHT22;4255;48.730;9.156;2023-04-15T13:44:04;12.70;1.00
8436;DHT22;4255;48.730;9.156;2023-04-15T13:46:30;12.60;1.00
8436;DHT22;4255;48.730;9.156;2023-04-15T13:48:56;12.70;99.90
8436;DHT22;4255;48.730;9.156;2023-04-15T13:51:21;12.80;1.00
8436;DHT22;4255;48.730;9.156;2023-04-15T13:53:47;13.00;9.20
8436;DHT22;4255;48.730;9.156;2023-04-15T13:56:13;13.20;1.00
8436;DHT22;4255;48.730;9.156;2023-04-15T13:58:39;13.30;1.00
8436;DHT22;4255;48.730;9.156;2023-04-15T14:01:05;13.40;99.90
8436;DHT22;4255;48.730;9.156;2023-04-15T14:03:31;13.30;99.90
8436;DHT22;4255;48.730;9.156;2023-04-15T14:05:57;13.40;99.90
8436;DHT22;4255;48.730;9.156;2023-04-15T14:08:24;13.40;99.90
8436;DHT22;4255;48.730;9.156;2023-04-15T14:10:50;13.50;99.50
8436;DHT22;4255;48.730;9.156;2023-04-15T14:13:15;13.30;1.00
8436;DHT22;4255;48.730;9.156;2023-04-15T14:15:41;13.20;48.80
8436;DHT22;4255;48.730;9.156;2023-04-15T14:18:07;13.00;1.00
8436;DHT22;4255;48.730;9.156;2023-04-15T14:20:32;12.70;1.00
8436;DHT22;4255;48.730;9.156;2023-04-15T14:22:58;12.60;1.00
8436;DHT22;4255;48.730;9.156;2023-04-15T14:25:24;12.60;1.00
8436;DHT22;4255;48.730;9.156;2023-04-15T14:27:51;12.30;1.00
8436;DHT22;4255;48.730;9.156;2023-04-15T14:30:16;12.20;1.00
8436;DHT22;4255;48.730;9.156;2023-04-15T14:32:42;12.10;1.00
8436;DHT22;4255;48.730;9.156;2023-04-15T14:35:08;12.10;1.00
8436;DHT22;4255;48.730;9.156;2023-04-15T14:37:33;12.00;1.00
8436;DHT22;4255;48.730;9.156;2023-04-15T14:39:59;12.10;1.00
8436;DHT22;4255;48.730;9.156;2023-04-15T14:42:24;12.20;1.00
8436;DHT22;4255;48.730;9.156;2023-04-15T14:44:50;12.10;1.00
8436;DHT22;4255;48.730;9.156;2023-04-15T14:47:16;11.90;1.00
8436;DHT22;4255;48.730;9.156;2023-04-15T14:49:41;11.90;1.00
8436;DHT22;4255;48.730;9.156;2023-04-15T14:52:07;11.70;18.50
8436;DHT22;4255;48.730;9.156;2023-04-15T14:54:33;11.70;99.90
8436;DHT22;4255;48.730;9.156;2023-04-15T14:56:58;11.80;99.90
8436;DHT22;4255;48.730;9.156;2023-04-15T14:59:24;11.80;99.90
8436;DHT22;4255;48.730;9.156;2023-04-15T15:01:49;11.90;99.90
8436;DHT22;4255;48.730;9.156;2023-04-15T15:04:15;11.80;99.90
8436;DHT22;4255;48.730;9.156;2023-04-15T15:06:41;11.60;99.90
8436;DHT22;4255;48.730;9.156;2023-04-15T15:09:06;11.30;99.90
8436;DHT22;4255;48.730;9.156;2023-04-15T15:11:32;11.20;1.00
8436;DHT22;4255;48.730;9.156;2023-04-15T15:13:58;11.10;1.00
8436;DHT22;4255;48.730;9.156;2023-04-15T15:16:24;10.90;99.90
8436;DHT22;4255;48.730;9.156;2023-04-15T15:18:49;11.00;99.90
8436;DHT22;4255;48.730;9.156;2023-04-15T15:21:15;10.90;1.00
8436;DHT22;4255;48.730;9.156;2023-04-15T15:23:41;10.70;1.00
8436;DHT22;4255;48.730;9.156;2023-04-15T15:26:07;10.60;1.00
8436;DHT22;4255;48.730;9.156;2023-04-15T15:28:33;10.50;1.00
8436;DHT22;4255;48.730;9.156;2023-04-15T15:30:59;10.40;24.20
8436;DHT22;4255;48.730;9.156;2023-04-15T15:33:25;10.40;99.90
8436;DHT22;4255;48.730;9.156;2023-04-15T15:35:50;10.40;1.00
8436;DHT22;4255;48.730;9.156;2023-04-15T15:38:16;10.40;1.00
8436;DHT22;4255;48.730;9.156;2023-04-15T15:40:42;10.50;99.90
8436;DHT22;4255;48.730;9.156;2023-04-15T15:43:07;10.70;1.00
8436;DHT22;4255;48.730;9.156;2023-04-15T15:45:34;10.60;1.00
8436;DHT22;4255;48.730;9.156;2023-04-15T15:48:00;10.50;1.00
8436;DHT22;4255;48.730;9.156;2023-04-15T15:50:26;10.50;1.00
8436;DHT22;4255;48.730;9.156;2023-04-15T15:52:52;10.80;99.90
8436;DHT22;4255;48.730;9.156;2023-04-15T15:55:17;10.70;99.90
8436;DHT22;4255;48.730;9.156;2023-04-15T15:57:43;10.70;99.90
8436;DHT22;4255;48.730;9.156;2023-04-15T16:00:09;10.70;9.50
8436;DHT22;4255;48.730;9.156;2023-04-15T16:02:36;11.00;1.00
8436;DHT22;4255;48.730;9.156;2023-04-15T16:05:01;11.00;1.00
8436;DHT22;4255;48.730;9.156;2023-04-15T16:07:27;11.10;1.00
8436;DHT22;4255;48.730;9.156;2023-04-15T16:09:53;10.90;1.00
8436;DHT22;4255;48.730;9.156;2023-04-15T16:12:18;10.80;1.00
8436;DHT22;4255;48.730;9.156;2023-04-15T16:14:44;10.80;99.90
8436;DHT22;4255;48.730;9.156;2023-04-15T16:17:11;10.70;1.00
8436;DHT22;4255;48.730;9.156;2023-04-15T16:19:37;10.60;1.00
8436;DHT22;4255;48.730;9.156;2023-04-15T16:22:02;10.60;99.90
8436;DHT22;4255;48.730;9.156;2023-04-15T16:24:28;10.50;1.00